Airfield :
LOGIN :

Register | Disclaimer

   EN    FR    IT 

 










Legend :    VFR   Marginal VFR   IFR   Intensive IFR   Very Intensive IFR
Visi :
Ceiling :
>= 8 km
>= 3000ft
5 to 8 km
1000 to 3000 ft
1500m to 5 km
500 to 1000 ft
800 to 1500m
200 to 500 ft
< 800m
< 200 ft
Symbols :   Thunderstorms  Fog  Heavy snow  Heavy precipitations  Wind > 20 kt
SIGMETs :     Misc.  Thunderstorms  Icing  Turbulence  Mountain Waves  Volcanic Ashes






- Airport Elevation : 325 ft
- IATA code : BES


LFRB - Brest

CURRENT METAR :
  • 200000Z AUTO 33005KT 7000 1900 NSC 07/07 Q1007 TEMPO 0500 FG VV///

EXPIRED METARs :
  • 192330Z AUTO 32004KT 6000 1200 R25/P2000 R07/2000U NSC 04/04 Q1007 TEMPO 0500 FG VV///
  • 192300Z AUTO 34003KT 2900 0900 R25/P2000 R07/1000N BCFG FEW021 05/05 Q1006 TEMPO 0500 FG VV///
  • 192230Z AUTO 35002KT 0900 0650 R25/P2000 R07/1200U FG NSC 05/05 Q1006 TEMPO 0500 FG VV///
  • 192200Z AUTO 36002KT 1300 0650 R25/P2000 R07/1500D BCFG FEW022 05/05 Q1006 TEMPO 0500 FG VV///
  • 192130Z AUTO 02001KT 0750 0550 R25/1100U R07/1700U FG FEW021 06/06 Q1006 TEMPO 0500 FG VV///

TAF TAF LFRB
Valid from the 20 at 00:00 until the 21 at 06:00 UTC


192300Z 2000/2106 36003KT 6000 FEW030
TEMPO 2000/2007 0800 FG
PROB40
TEMPO 2000/2006 0500 FG VV///
BECMG 2009/2012 01013KT
PROB30
TEMPO 2009/2106 SHRA BKN015TCU
ATIS : +33 2 98 32 02 71



MET'MAP, your aeronautical weather chart ! - Copyright ORBIFLY December 2007 - Disclaimer

ORBIFLY MET'MAP TEAM :

Programming & Development : Alexandra Zaïnal
Concept & Development : Baudouin d'Aumeries
Co-Development & Prog : Marc-Olivier Méhu
Technical & hardware support : Manuel Goepfert

Contact : metmap@orbifly.com




SOURCES & CREDITS :

   NOAA